Time;durP1;ratioP1;P1;durP2;ratioP2;P2;SDS_P1;SDS_P2;PMS_P1;PMS_P2;Temp;Humidity;BMP_temperature;BMP_pressure;BME280_temperature;BME280_humidity;BME280_pressure;Samples;Min_cycle;Max_cycle;Signal;HPM_P1;HPM_P2
2022/05/12 00:00:31;;;;;;;4.78;2.50;;;;;;;20.00;40.46;97995.38;4221959;27;20817;-70
2022/05/12 00:02:31;;;;;;;4.68;2.25;;;;;;;20.02;40.11;98018.19;4225134;27;20050;-71
2022/05/12 00:04:33;;;;;;;6.35;2.70;;;;;;;19.94;40.25;98006.41;4221211;27;20040;-70
2022/05/12 00:06:35;;;;;;;4.38;2.30;;;;;;;19.88;40.51;98014.63;4223723;27;20044;-70
2022/05/12 00:08:35;;;;;;;6.05;2.55;;;;;;;19.87;40.36;98006.66;4223820;27;20035;-71
2022/05/12 00:10:37;;;;;;;3.60;2.13;;;;;;;19.89;40.17;98007.78;4222974;27;20036;-70
2022/05/12 00:12:38;;;;;;;3.35;2.08;;;;;;;19.85;40.36;98011.91;4222847;27;20405;-70
2022/05/12 00:14:39;;;;;;;5.43;2.67;;;;;;;19.77;40.20;98007.78;4223168;27;20043;-70
2022/05/12 00:16:39;;;;;;;6.78;2.47;;;;;;;19.76;41.05;98012.59;4219152;27;20788;-70
2022/05/12 00:18:40;;;;;;;2.47;2.17;;;;;;;19.71;40.74;98018.81;4221619;27;20054;-70
2022/05/12 00:20:41;;;;;;;3.63;2.10;;;;;;;19.70;40.72;98022.06;4224707;27;20142;-70
2022/05/12 00:22:42;;;;;;;5.57;2.28;;;;;;;19.69;40.34;98020.47;4221162;28;20231;-70
2022/05/12 00:24:42;;;;;;;4.40;2.10;;;;;;;19.65;40.61;98020.59;4223619;27;20419;-70
2022/05/12 00:26:43;;;;;;;3.55;2.00;;;;;;;19.63;40.55;98025.88;4224898;27;20086;-70
2022/05/12 00:28:43;;;;;;;3.53;2.20;;;;;;;19.58;40.99;98021.59;4221064;27;20032;-70
2022/05/12 00:30:45;;;;;;;3.75;2.25;;;;;;;19.55;41.01;98014.06;4225022;27;20108;-70
2022/05/12 00:32:47;;;;;;;4.38;2.28;;;;;;;19.49;40.95;98015.84;4220919;27;20062;-70
2022/05/12 00:34:47;;;;;;;5.13;1.80;;;;;;;19.46;41.16;98024.41;4219845;28;20079;-70
2022/05/12 00:36:48;;;;;;;4.35;2.00;;;;;;;19.45;41.04;98023.63;4226003;27;20507;-70
2022/05/12 00:38:48;;;;;;;3.08;2.00;;;;;;;19.39;41.44;98013.41;4222153;28;20127;-70
2022/05/12 00:40:49;;;;;;;2.70;2.10;;;;;;;19.37;41.14;98016.66;4223039;27;20067;-70
2022/05/12 00:43:01;;;;;;;7.18;2.40;;;;;;;19.36;41.16;98023.47;4219498;28;20040;-70
2022/05/12 00:45:01;;;;;;;5.35;1.98;;;;;;;19.33;41.50;98013.16;4222777;27;20039;-70
2022/05/12 00:47:03;;;;;;;2.72;1.80;;;;;;;19.30;41.66;98019.69;4219526;28;20039;-70
2022/05/12 00:49:07;;;;;;;3.20;2.05;;;;;;;19.28;41.47;98016.50;4219316;27;20270;-70
2022/05/12 00:51:10;;;;;;;3.50;2.05;;;;;;;19.32;40.88;98012.38;4217993;28;20129;-70
2022/05/12 00:53:12;;;;;;;4.63;2.20;;;;;;;19.37;41.10;98025.06;4219547;28;20135;-70
2022/05/12 00:55:19;;;;;;;3.47;2.00;;;;;;;19.36;40.98;98015.88;4219665;28;20046;-70
2022/05/12 00:57:30;;;;;;;3.88;2.15;;;;;;;19.32;41.88;98009.56;4219605;28;20044;-70
2022/05/12 00:59:33;;;;;;;3.60;2.15;;;;;;;19.27;41.22;98023.34;4227150;27;20142;-70
2022/05/12 01:01:33;;;;;;;3.45;2.20;;;;;;;19.23;41.77;98025.50;4230079;27;20047;-70
2022/05/12 01:03:37;;;;;;;3.60;2.20;;;;;;;19.18;42.02;98026.03;4219871;27;20092;-70
2022/05/12 01:05:38;;;;;;;6.15;2.35;;;;;;;19.20;41.42;98035.59;4224161;28;20043;-70
2022/05/12 01:07:38;;;;;;;5.78;2.15;;;;;;;19.13;41.60;98032.22;4233496;27;20066;-70
2022/05/12 01:09:39;;;;;;;2.55;1.98;;;;;;;19.05;41.74;98028.84;4219122;28;20480;-70
2022/05/12 01:11:40;;;;;;;4.75;2.10;;;;;;;18.99;42.30;98034.19;4218948;28;20136;-70
2022/05/12 01:13:42;;;;;;;2.95;2.30;;;;;;;18.93;42.52;98032.38;4220215;28;20136;-70
2022/05/12 01:15:52;;;;;;;3.03;2.10;;;;;;;18.88;42.40;98032.94;4223663;27;20399;-70
2022/05/12 01:18:17;;;;;;;3.15;2.20;;;;;;;18.89;43.11;98038.09;4226973;27;20067;-70
2022/05/12 01:20:17;;;;;;;2.78;1.88;;;;;;;18.92;42.43;98037.22;4223425;27;20044;-70
2022/05/12 01:22:45;;;;;;;5.85;2.20;;;;;;;18.93;43.11;98052.00;4222902;28;20482;-71
2022/05/12 01:24:46;;;;;;;3.72;1.80;;;;;;;18.94;42.79;98056.38;4221822;27;20363;-70
2022/05/12 01:26:46;;;;;;;3.78;2.00;;;;;;;18.88;43.11;98052.56;4222866;27;20140;-70
2022/05/12 01:28:47;;;;;;;5.90;2.20;;;;;;;18.92;43.37;98070.84;4224431;27;20043;-70
2022/05/12 01:30:48;;;;;;;2.92;1.70;;;;;;;18.87;43.62;98051.00;4228817;27;20055;-70
2022/05/12 01:32:48;;;;;;;3.92;2.17;;;;;;;18.88;43.49;98053.34;4222629;28;20051;-70
2022/05/12 01:34:49;;;;;;;6.07;2.00;;;;;;;18.88;43.70;98061.75;4222665;27;20055;-70
2022/05/12 01:36:49;;;;;;;4.95;2.33;;;;;;;18.85;44.21;98067.47;4222611;28;20075;-70
2022/05/12 01:38:50;;;;;;;4.00;1.83;;;;;;;18.92;44.38;98059.63;4221910;28;20071;-70
2022/05/12 01:40:51;;;;;;;3.17;1.90;;;;;;;18.97;43.98;98064.72;4222649;28;20108;-70
2022/05/12 01:42:53;;;;;;;2.78;1.80;;;;;;;18.98;44.29;98057.88;4222284;28;20044;-70
2022/05/12 01:44:53;;;;;;;2.95;1.95;;;;;;;18.98;44.45;98063.47;4226648;27;20050;-70
2022/05/12 01:46:54;;;;;;;2.60;1.95;;;;;;;18.94;44.57;98074.00;4221887;27;20058;-70
2022/05/12 01:48:54;;;;;;;3.60;1.75;;;;;;;18.95;44.85;98077.56;4221782;28;20209;-70
2022/05/12 01:50:55;;;;;;;2.40;1.75;;;;;;;18.94;44.71;98079.59;4226401;27;20491;-70
2022/05/12 01:52:55;;;;;;;3.25;1.90;;;;;;;18.87;45.02;98077.00;4222200;28;20126;-70
2022/05/12 01:54:55;;;;;;;2.67;2.10;;;;;;;18.87;45.30;98087.44;4221790;28;20043;-70
2022/05/12 01:56:57;;;;;;;3.00;1.92;;;;;;;18.80;45.53;98083.59;4222149;27;20039;-70
2022/05/12 01:58:57;;;;;;;3.63;1.85;;;;;;;18.81;45.55;98087.19;4226923;27;20124;-70
2022/05/12 02:00:57;;;;;;;3.33;1.85;;;;;;;18.77;46.03;98089.28;4221715;28;20070;-70
2022/05/12 02:03:01;;;;;;;4.50;1.75;;;;;;;18.74;46.10;98093.78;4222267;28;20032;-70
2022/05/12 02:05:02;;;;;;;5.97;2.65;;;;;;;18.76;46.01;98096.13;4221975;27;20515;-70
2022/05/12 02:07:02;;;;;;;3.28;1.65;;;;;;;18.72;46.34;98095.44;4221849;28;20050;-70
2022/05/12 02:09:04;;;;;;;4.28;2.20;;;;;;;18.71;47.06;98099.47;4220997;28;20051;-70
2022/05/12 02:11:05;;;;;;;2.70;1.85;;;;;;;18.73;47.12;98099.81;4222150;27;20035;-70
2022/05/12 02:13:07;;;;;;;2.28;1.92;;;;;;;18.66;47.13;98102.81;4221801;27;20042;-70
2022/05/12 02:15:08;;;;;;;4.45;2.38;;;;;;;18.63;47.50;98110.06;4221740;27;20313;-70
2022/05/12 02:17:08;;;;;;;3.05;2.17;;;;;;;18.66;47.85;98125.22;4221972;28;20042;-70
2022/05/12 02:19:11;;;;;;;4.00;2.13;;;;;;;18.61;48.02;98117.31;4226880;27;20040;-70
2022/05/12 02:21:11;;;;;;;5.75;1.77;;;;;;;18.56;48.29;98120.66;4221789;27;20441;-70
2022/05/12 02:23:11;;;;;;;11.13;2.70;;;;;;;18.59;48.27;98122.56;4221313;27;20135;-70
2022/05/12 02:25:12;;;;;;;4.50;1.95;;;;;;;18.65;48.27;98129.22;4222759;27;20135;-70
2022/05/12 02:27:13;;;;;;;2.15;1.92;;;;;;;18.64;48.35;98131.25;4220468;28;20435;-70
2022/05/12 02:29:13;;;;;;;2.65;1.85;;;;;;;18.59;48.62;98140.19;4219586;27;20050;-70
2022/05/12 02:31:14;;;;;;;5.05;1.83;;;;;;;18.55;48.94;98145.09;4221928;28;20070;-70
2022/05/12 02:33:14;;;;;;;5.13;2.10;;;;;;;18.47;49.32;98146.50;4221405;28;20594;-70
2022/05/12 02:35:15;;;;;;;3.22;1.95;;;;;;;18.49;49.42;98150.44;4221659;28;20532;-70
2022/05/12 02:37:16;;;;;;;7.65;1.92;;;;;;;18.48;48.96;98159.28;4224524;27;20302;-70
2022/05/12 02:39:17;;;;;;;5.50;1.90;;;;;;;18.45;49.52;98158.16;4221128;27;20417;-70
2022/05/12 02:41:17;;;;;;;3.17;1.88;;;;;;;18.33;49.71;98163.66;4221464;27;20079;-70
2022/05/12 02:43:23;;;;;;;4.13;2.25;;;;;;;18.25;50.30;98161.03;4220669;28;20046;-70
2022/05/12 02:45:25;;;;;;;5.50;2.10;;;;;;;18.16;50.43;98171.25;4222917;27;20043;-70
2022/05/12 02:47:25;;;;;;;4.07;1.83;;;;;;;18.16;50.74;98165.66;4221589;27;20048;-70
2022/05/12 02:49:25;;;;;;;4.45;1.83;;;;;;;18.10;50.78;98161.81;4220763;28;20034;-70
2022/05/12 02:51:26;;;;;;;5.28;2.10;;;;;;;17.98;50.94;98168.09;4221292;28;20092;-70
2022/05/12 02:53:27;;;;;;;3.05;2.10;;;;;;;17.96;51.41;98188.13;4221628;27;20166;-70
2022/05/12 02:55:28;;;;;;;4.00;2.60;;;;;;;17.83;51.56;98176.03;4222214;27;20032;-70
2022/05/12 02:57:28;;;;;;;4.68;2.58;;;;;;;17.75;52.00;98177.41;4226559;27;20126;-70
2022/05/12 02:59:29;;;;;;;4.40;2.05;;;;;;;17.73;52.27;98191.03;4225748;27;20044;-70
2022/05/12 03:01:30;;;;;;;5.80;2.30;;;;;;;17.58;52.85;98196.91;4223536;27;20050;-72
2022/05/12 03:03:30;;;;;;;6.82;2.08;;;;;;;17.62;52.66;98206.00;4224212;27;20044;-70
2022/05/12 03:05:30;;;;;;;3.55;2.20;;;;;;;17.63;53.31;98229.19;4220721;27;20061;-70
2022/05/12 03:07:31;;;;;;;5.45;2.97;;;;;;;17.06;57.97;98241.50;4225591;27;20134;-70
2022/05/12 03:09:31;;;;;;;7.32;2.70;;;;;;;16.55;61.24;98243.53;4224728;27;20361;-70
2022/05/12 03:11:32;;;;;;;6.68;3.13;;;;;;;16.29;63.59;98251.47;4228374;27;20095;-70
2022/05/12 03:13:32;;;;;;;8.80;3.40;;;;;;;15.83;65.68;98262.50;4223628;27;20514;-70
2022/05/12 03:15:33;;;;;;;6.93;3.35;;;;;;;15.70;66.75;98270.63;4221207;28;20066;-71
2022/05/12 03:17:34;;;;;;;8.35;3.17;;;;;;;15.53;68.05;98282.75;4220513;27;20150;-72
2022/05/12 03:19:34;;;;;;;5.60;3.22;;;;;;;15.32;68.74;98276.22;4220242;28;20503;-71
2022/05/12 03:21:35;;;;;;;6.30;3.78;;;;;;;15.18;69.20;98281.94;4220972;27;20052;-72
2022/05/12 03:23:35;;;;;;;6.88;3.20;;;;;;;15.13;69.43;98272.03;4220503;27;20040;-72
2022/05/12 03:25:35;;;;;;;6.72;3.50;;;;;;;15.05;69.69;98276.09;4223033;27;20047;-72
2022/05/12 03:27:37;;;;;;;5.20;3.33;;;;;;;14.98;70.14;98280.97;4220782;28;20317;-72
2022/05/12 03:29:37;;;;;;;7.57;3.13;;;;;;;14.86;70.52;98285.81;4221808;27;20044;-72
2022/05/12 03:31:37;;;;;;;8.70;3.42;;;;;;;14.94;70.22;98289.34;4220736;28;20154;-72
2022/05/12 03:33:38;;;;;;;5.65;3.60;;;;;;;14.97;69.97;98301.63;4218659;28;20066;-72
2022/05/12 03:35:39;;;;;;;7.53;3.35;;;;;;;14.90;69.54;98299.72;4221234;27;20047;-71
2022/05/12 03:37:40;;;;;;;8.02;3.40;;;;;;;14.95;69.18;98306.84;4220538;28;20479;-72
2022/05/12 03:39:41;;;;;;;6.20;3.40;;;;;;;14.96;68.65;98302.84;4218502;28;20047;-72
2022/05/12 03:41:41;;;;;;;9.40;3.95;;;;;;;15.04;68.32;98310.72;4224836;27;20054;-72
2022/05/12 03:46:00;;;;;;;10.82;3.95;;;;;;;15.23;67.31;98308.59;4221292;27;20376;-72
2022/05/12 03:48:01;;;;;;;12.80;3.70;;;;;;;15.32;66.96;98318.03;4222907;27;20048;-72
2022/05/12 03:50:08;;;;;;;6.28;3.90;;;;;;;15.32;66.95;98309.69;4219179;28;20052;-73
2022/05/12 03:52:08;;;;;;;9.30;3.70;;;;;;;15.34;66.54;98314.84;4221920;27;20039;-73
2022/05/12 03:54:09;;;;;;;10.10;3.33;;;;;;;15.35;66.57;98327.56;4227298;27;20023;-73
2022/05/12 03:56:09;;;;;;;12.10;3.72;;;;;;;15.38;66.86;98330.31;4220296;27;20051;-72
2022/05/12 03:58:10;;;;;;;4.75;3.50;;;;;;;15.43;66.76;98331.84;4220354;28;20077;-73
2022/05/12 04:00:14;;;;;;;17.50;4.25;;;;;;;15.44;66.69;98330.66;4219412;28;20472;-73
2022/05/12 04:02:15;;;;;;;9.43;4.00;;;;;;;15.49;66.80;98340.56;4219033;28;20409;-73
2022/05/12 04:04:15;;;;;;;5.55;3.35;;;;;;;15.46;66.42;98345.75;4220666;27;20034;-72
2022/05/12 04:06:15;;;;;;;5.22;3.70;;;;;;;15.44;66.64;98347.38;4220160;28;20391;-72
2022/05/12 04:08:16;;;;;;;7.55;3.42;;;;;;;15.43;66.70;98352.16;4219944;28;20218;-72
2022/05/12 04:10:17;;;;;;;6.25;3.45;;;;;;;15.54;66.76;98348.47;4218750;28;20031;-72
2022/05/12 04:12:18;;;;;;;10.10;3.90;;;;;;;15.50;66.68;98359.69;4220416;27;20038;-73
2022/05/12 04:14:18;;;;;;;8.50;4.10;;;;;;;15.47;66.84;98352.13;4219742;28;20036;-72
2022/05/12 04:16:19;;;;;;;5.75;3.72;;;;;;;15.44;67.16;98362.09;4220133;28;20408;-71
2022/05/12 04:18:20;;;;;;;4.75;3.60;;;;;;;15.37;67.36;98364.97;4219458;28;20031;-72
2022/05/12 04:20:20;;;;;;;7.38;3.92;;;;;;;15.36;67.15;98368.97;4219844;27;20168;-72
2022/05/12 04:22:20;;;;;;;9.45;4.13;;;;;;;15.41;67.38;98378.88;4219858;28;20436;-72
2022/05/12 04:24:21;;;;;;;4.47;3.47;;;;;;;15.36;67.54;98380.09;4219928;28;20136;-72
2022/05/12 04:26:21;;;;;;;5.43;3.30;;;;;;;15.37;67.36;98387.25;4226443;27;20094;-72
2022/05/12 04:28:22;;;;;;;7.88;3.83;;;;;;;15.35;67.33;98392.47;4219048;28;20046;-73
2022/05/12 04:30:25;;;;;;;6.57;3.67;;;;;;;15.35;67.60;98386.88;4219816;28;20140;-72
2022/05/12 04:32:26;;;;;;;8.25;4.28;;;;;;;15.45;67.70;98393.56;4221592;28;20421;-73
2022/05/12 04:36:45;;;;;;;10.15;4.35;;;;;;;15.37;67.44;98404.00;4220763;28;20547;-72
2022/05/12 04:38:45;;;;;;;11.75;4.38;;;;;;;15.38;67.74;98402.78;4218467;28;20496;-72
2022/05/12 04:40:51;;;;;;;8.27;3.72;;;;;;;15.38;67.66;98405.56;4222844;27;20391;-73
2022/05/12 04:42:53;;;;;;;7.65;4.30;;;;;;;15.46;67.37;98417.44;4219532;28;20390;-73
2022/05/12 04:44:54;;;;;;;8.40;3.63;;;;;;;15.49;67.54;98415.84;4224504;28;20042;-72
2022/05/12 04:46:54;;;;;;;11.25;3.17;;;;;;;15.51;67.78;98414.22;4219894;28;20039;-72
2022/05/12 04:48:54;;;;;;;11.75;3.50;;;;;;;15.47;67.91;98419.03;4219367;28;20075;-72
2022/05/12 04:50:55;;;;;;;7.15;3.70;;;;;;;15.46;68.52;98423.03;4226031;27;20529;-72
2022/05/12 04:52:56;;;;;;;6.40;4.25;;;;;;;15.57;69.00;98436.88;4223140;28;20513;-72
2022/05/12 04:54:56;;;;;;;7.03;3.88;;;;;;;15.56;69.01;98450.03;4136154;27;20046;-72
2022/05/12 04:56:56;;;;;;;6.72;4.05;;;;;;;15.69;69.54;98441.97;4232093;27;20039;-72
2022/05/12 04:58:57;;;;;;;7.60;4.05;;;;;;;15.75;68.17;98439.53;4222387;28;20092;-71
2022/05/12 05:00:57;;;;;;;7.05;4.05;;;;;;;15.73;68.71;98442.75;4223206;27;20121;-72
2022/05/12 05:02:58;;;;;;;12.82;4.00;;;;;;;15.73;68.61;98446.31;4223068;28;20151;-72
2022/05/12 05:04:58;;;;;;;6.10;3.55;;;;;;;15.82;67.59;98456.22;4228532;27;20043;-72
2022/05/12 05:06:59;;;;;;;5.72;3.95;;;;;;;15.80;68.37;98464.19;4222760;27;20051;-72
2022/05/12 05:08:59;;;;;;;6.95;3.58;;;;;;;15.88;68.66;98474.06;4224491;27;20043;-71
2022/05/12 05:11:00;;;;;;;7.60;3.38;;;;;;;15.86;68.13;98471.69;4222573;27;20071;-73
2022/05/12 05:13:01;;;;;;;5.65;3.35;;;;;;;15.92;68.35;98475.63;4222923;28;20071;-72
2022/05/12 05:15:01;;;;;;;6.10;3.30;;;;;;;15.93;67.96;98477.19;4225408;27;20058;-72
2022/05/12 05:17:02;;;;;;;4.97;3.22;;;;;;;15.92;68.09;98488.78;4222818;27;20493;-72
2022/05/12 05:19:02;;;;;;;9.75;3.25;;;;;;;15.85;68.31;98492.44;4222145;27;20044;-72
2022/05/12 05:21:03;;;;;;;7.07;3.97;;;;;;;15.89;68.58;98501.56;4222970;27;20573;-72
2022/05/12 05:23:03;;;;;;;6.70;3.42;;;;;;;15.92;68.07;98509.09;4222457;28;20065;-71
2022/05/12 05:25:04;;;;;;;6.45;3.55;;;;;;;15.80;67.52;98515.19;4222065;28;20052;-72
2022/05/12 05:27:06;;;;;;;10.38;3.70;;;;;;;15.68;67.99;98512.91;4222785;28;20031;-72
2022/05/12 05:29:07;;;;;;;5.63;3.85;;;;;;;15.72;68.19;98516.44;4221892;28;20259;-72
2022/05/12 05:31:07;;;;;;;8.43;3.25;;;;;;;15.70;68.39;98519.66;4222336;27;20482;-72
2022/05/12 05:33:09;;;;;;;6.03;3.63;;;;;;;15.67;68.95;98523.28;4222622;28;20122;-72
2022/05/12 05:35:12;;;;;;;7.97;3.75;;;;;;;15.53;70.23;98522.56;4221449;27;20070;-72
2022/05/12 05:37:12;;;;;;;5.38;3.95;;;;;;;15.53;70.74;98542.06;4226957;27;20601;-72
2022/05/12 05:39:21;;;;;;;7.90;4.70;;;;;;;15.33;71.49;98533.47;4222697;27;20047;-72
2022/05/12 05:41:22;;;;;;;7.18;4.22;;;;;;;15.36;71.58;98541.00;4228099;27;20697;-72
2022/05/12 05:43:23;;;;;;;12.63;3.85;;;;;;;15.34;71.35;98548.97;4227279;27;20387;-72
2022/05/12 05:45:25;;;;;;;5.95;4.13;;;;;;;15.28;71.28;98551.41;4232665;27;20050;-72
2022/05/12 05:47:26;;;;;;;6.15;4.60;;;;;;;15.15;71.13;98578.97;4222855;27;20138;-71
2022/05/12 05:49:28;;;;;;;6.07;4.60;;;;;;;15.14;71.61;98565.41;4221480;28;20067;-71
2022/05/12 05:53:47;;;;;;;12.48;4.55;;;;;;;15.09;71.05;98586.16;4222722;28;20051;-72
2022/05/12 05:55:48;;;;;;;7.22;4.32;;;;;;;15.07;71.09;98591.34;4222501;27;20483;-71
2022/05/12 05:57:48;;;;;;;8.23;4.90;;;;;;;15.05;70.66;98576.22;4222346;28;20039;-71
2022/05/12 05:59:49;;;;;;;6.38;4.90;;;;;;;15.06;70.89;98588.94;4220904;27;20038;-71
2022/05/12 06:01:50;;;;;;;7.20;4.35;;;;;;;15.07;70.89;98591.34;4223999;27;20046;-71
2022/05/12 06:03:52;;;;;;;5.32;4.07;;;;;;;15.16;70.96;98583.34;4221763;28;20036;-71
2022/05/12 06:05:53;;;;;;;5.82;3.60;;;;;;;15.12;70.31;98599.25;4220550;28;20098;-71
2022/05/12 06:07:54;;;;;;;4.78;3.60;;;;;;;15.21;68.80;98598.81;4222028;27;20307;-71
2022/05/12 06:09:55;;;;;;;3.97;2.85;;;;;;;15.20;67.17;98605.59;4221405;28;20489;-71
2022/05/12 06:11:55;;;;;;;5.00;2.50;;;;;;;15.06;66.34;98602.88;4231739;27;20043;-71
2022/05/12 06:13:56;;;;;;;3.58;2.38;;;;;;;15.17;66.32;98606.41;4221443;27;20463;-71
2022/05/12 06:15:57;;;;;;;5.60;4.35;;;;;;;15.10;67.28;98621.16;4222145;27;20505;-71
2022/05/12 06:17:57;;;;;;;8.50;2.83;;;;;;;15.05;67.41;98634.72;4220365;28;20035;-71
2022/05/12 06:19:57;;;;;;;5.47;4.13;;;;;;;14.97;68.42;98630.38;4220685;27;20127;-71
2022/05/12 06:21:58;;;;;;;4.65;3.15;;;;;;;14.81;69.53;98628.03;4221457;28;20542;-71
2022/05/12 06:23:58;;;;;;;6.63;3.97;;;;;;;14.70;69.73;98638.41;4221671;28;20432;-71
2022/05/12 06:25:59;;;;;;;12.77;9.07;;;;;;;14.68;70.27;98643.59;4221612;28;20082;-71
2022/05/12 06:27:59;;;;;;;5.13;3.55;;;;;;;14.69;69.70;98643.19;4220734;28;20089;-71
2022/05/12 06:30:00;;;;;;;8.50;3.35;;;;;;;14.60;69.67;98642.81;4221031;28;20123;-71
2022/05/12 06:32:01;;;;;;;4.60;3.20;;;;;;;14.61;70.26;98642.41;4220826;28;20047;-72
2022/05/12 06:34:02;;;;;;;3.65;3.22;;;;;;;14.54;70.68;98664.69;4224652;27;20499;-72
2022/05/12 06:36:07;;;;;;;5.65;3.50;;;;;;;14.59;70.47;98658.75;4221339;27;20114;-72
2022/05/12 06:38:08;;;;;;;8.80;4.60;;;;;;;14.79;68.88;98661.06;4220365;28;20463;-72
2022/05/12 06:40:09;;;;;;;8.38;3.63;;;;;;;14.99;69.04;98667.78;4220746;28;20034;-72
2022/05/12 06:42:09;;;;;;;5.90;3.80;;;;;;;14.91;69.30;98660.66;4221976;27;20077;-71
2022/05/12 06:44:10;;;;;;;4.47;2.97;;;;;;;14.90;68.25;98670.22;4224682;27;20040;-71
2022/05/12 06:46:17;;;;;;;6.70;3.10;;;;;;;14.79;69.00;98683.34;4222790;27;20546;-71
2022/05/12 06:48:20;;;;;;;4.32;3.42;;;;;;;14.78;68.50;98678.97;4220893;27;20023;-71
2022/05/12 06:50:24;;;;;;;5.05;3.30;;;;;;;14.74;68.57;98681.78;4220774;28;20122;-71
2022/05/12 06:52:26;;;;;;;5.63;3.17;;;;;;;14.77;68.60;98680.97;4221014;28;20031;-71
2022/05/12 06:54:28;;;;;;;6.80;2.57;;;;;;;14.77;68.78;98682.97;4233729;27;20629;-71
2022/05/12 06:56:29;;;;;;;5.03;3.10;;;;;;;14.91;67.77;98690.50;4221385;28;20043;-71
2022/05/12 06:58:29;;;;;;;4.47;2.60;;;;;;;15.02;66.74;98691.25;4220270;28;20036;-71
2022/05/12 07:00:29;;;;;;;6.38;2.88;;;;;;;15.23;67.12;98688.41;4220889;27;20050;-72
2022/05/12 07:02:30;;;;;;;6.40;3.10;;;;;;;15.16;65.36;98692.03;4232048;27;20043;-71
2022/05/12 07:04:31;;;;;;;4.32;2.70;;;;;;;15.15;65.01;98696.00;4221512;27;20105;-71
2022/05/12 07:06:32;;;;;;;3.08;2.45;;;;;;;15.31;64.63;98700.34;4220387;28;20067;-71
2022/05/12 07:08:36;;;;;;;4.93;2.63;;;;;;;15.28;63.63;98698.34;4220970;27;20044;-72
2022/05/12 07:10:37;;;;;;;4.80;2.70;;;;;;;15.28;63.48;98712.28;4221210;27;20062;-72
2022/05/12 07:12:37;;;;;;;4.80;2.75;;;;;;;15.24;63.73;98717.88;4221049;27;20035;-71
2022/05/12 07:14:38;;;;;;;4.22;2.50;;;;;;;15.18;63.99;98714.69;4219939;28;20043;-71
2022/05/12 07:16:38;;;;;;;3.55;2.30;;;;;;;15.05;64.71;98713.53;4222850;27;20039;-71
2022/05/12 07:18:38;;;;;;;3.42;2.30;;;;;;;15.13;63.21;98705.94;4222137;27;20044;-72
2022/05/12 07:27:37;;;;;;;2.60;2.30;;;;;;;15.11;63.29;98728.66;4220840;28;20125;-71
2022/05/12 07:29:37;;;;;;;3.95;2.72;;;;;;;15.26;63.17;98728.63;4220071;27;20187;-71
2022/05/12 07:31:38;;;;;;;8.60;2.40;;;;;;;15.39;62.57;98732.53;4225319;27;20071;-71
2022/05/12 07:33:41;;;;;;;5.88;2.35;;;;;;;15.38;63.12;98736.53;4227234;27;20405;-71
2022/05/12 07:35:41;;;;;;;3.15;2.15;;;;;;;15.53;62.48;98734.47;4223679;27;20122;-71
2022/05/12 07:37:42;;;;;;;4.22;2.97;;;;;;;15.57;62.20;98733.28;4224819;27;20472;-72
2022/05/12 07:39:42;;;;;;;3.67;2.83;;;;;;;15.41;62.79;98744.09;4219675;28;20040;-71
2022/05/12 07:41:43;;;;;;;7.38;3.05;;;;;;;15.43;62.28;98742.50;4226809;27;20143;-71
2022/05/12 07:43:45;;;;;;;3.85;2.38;;;;;;;15.50;61.50;98741.66;4220292;27;20446;-71
2022/05/12 07:45:45;;;;;;;4.07;2.38;;;;;;;15.53;62.00;98738.06;4222952;27;20047;-71
2022/05/12 07:47:45;;;;;;;3.45;2.65;;;;;;;15.63;62.77;98742.81;4220531;27;20302;-72
2022/05/12 07:49:46;;;;;;;3.20;2.72;;;;;;;15.79;62.23;98741.56;4219397;28;20051;-72
2022/05/12 07:51:46;;;;;;;5.47;2.50;;;;;;;15.91;62.90;98750.28;4219748;28;20055;-71
2022/05/12 07:53:48;;;;;;;4.45;2.25;;;;;;;15.98;62.52;98757.81;4220331;27;20100;-72
2022/05/12 07:55:49;;;;;;;2.65;2.22;;;;;;;15.74;61.38;98748.38;4228495;27;20514;-71
2022/05/12 07:57:50;;;;;;;2.38;2.08;;;;;;;15.92;62.02;98746.28;4221793;27;20401;-72
2022/05/12 07:59:50;;;;;;;5.40;3.00;;;;;;;16.03;61.19;98760.16;4219110;28;20130;-72
2022/05/12 08:01:50;;;;;;;4.25;2.50;;;;;;;15.88;60.57;98753.06;4220066;28;20082;-72
2022/05/12 08:03:51;;;;;;;3.65;2.13;;;;;;;16.06;61.05;98758.56;4219991;28;20610;-71
2022/05/12 08:05:51;;;;;;;3.47;2.50;;;;;;;16.16;61.41;98761.28;4222179;27;20094;-72
2022/05/12 08:07:52;;;;;;;5.40;2.30;;;;;;;16.29;61.48;98769.97;4219182;27;20079;-72
2022/05/12 08:09:53;;;;;;;3.30;2.30;;;;;;;16.22;59.04;98767.25;4225514;27;20077;-72
2022/05/12 08:11:53;;;;;;;4.53;2.80;;;;;;;16.18;58.95;98770.03;4219964;28;20047;-71
2022/05/12 08:13:54;;;;;;;3.33;2.60;;;;;;;16.16;58.23;98764.06;4218796;28;20055;-72
2022/05/12 08:15:55;;;;;;;4.03;2.30;;;;;;;16.28;60.44;98768.38;4220093;28;20038;-72
2022/05/12 08:17:59;;;;;;;6.28;2.45;;;;;;;16.40;59.08;98758.72;4219892;28;20047;-72
2022/05/12 08:19:59;;;;;;;3.22;2.15;;;;;;;16.50;59.49;98769.81;4225571;27;20082;-72
2022/05/12 08:21:59;;;;;;;8.57;2.70;;;;;;;16.61;59.70;98764.13;4225351;27;20028;-72
2022/05/12 08:24:00;;;;;;;6.63;2.47;;;;;;;16.75;57.93;98764.06;4220056;28;20613;-72
2022/05/12 08:26:01;;;;;;;7.15;2.38;;;;;;;16.51;57.80;98792.94;4219884;28;20036;-72
2022/05/12 08:28:02;;;;;;;4.67;2.43;;;;;;;16.62;59.33;98776.09;4219844;28;20039;-71
2022/05/12 08:30:07;;;;;;;4.95;2.60;;;;;;;16.35;58.08;98775.91;4219418;27;20558;-71
2022/05/12 08:32:07;;;;;;;4.22;2.42;;;;;;;16.45;59.50;98769.44;4219509;28;20487;-71
2022/05/12 08:34:08;;;;;;;3.63;2.38;;;;;;;16.62;59.42;98779.69;4220168;28;20031;-71
2022/05/12 08:36:10;;;;;;;3.30;2.33;;;;;;;16.63;56.92;98772.91;4219741;28;20482;-71
2022/05/12 08:38:12;;;;;;;4.35;2.33;;;;;;;16.64;57.87;98768.13;4219733;28;20035;-71
2022/05/12 08:41:05;;;;;;;7.40;2.60;;;;;;;16.79;56.45;98778.78;4219174;28;20070;-71
2022/05/12 08:43:41;;;;;;;6.93;2.30;;;;;;;17.00;56.88;98779.81;4215850;28;20078;-71
2022/05/12 08:45:43;;;;;;;3.92;2.30;;;;;;;17.07;55.65;98779.75;4229735;28;20043;-71
2022/05/12 08:47:47;;;;;;;4.90;2.92;;;;;;;17.04;54.59;98780.56;4221179;28;20059;-71
2022/05/12 08:49:50;;;;;;;5.55;3.97;;;;;;;16.80;54.55;98780.38;4227397;27;20063;-72
2022/05/12 08:51:55;;;;;;;4.38;2.78;;;;;;;16.97;57.44;98777.84;4220219;28;20136;-72
2022/05/12 08:54:00;;;;;;;7.00;4.53;;;;;;;17.16;55.58;98774.44;4219477;28;20047;-72
2022/05/12 08:56:01;;;;;;;4.32;2.90;;;;;;;17.25;54.32;98790.75;4219429;27;20040;-72
2022/05/12 08:58:13;;;;;;;5.35;2.92;;;;;;;17.32;56.32;98793.47;4218778;28;20261;-72
2022/05/12 09:00:16;;;;;;;5.43;2.42;;;;;;;17.19;54.66;98792.38;4221960;27;20102;-72
2022/05/12 09:02:16;;;;;;;;;;;;;;;17.21;54.88;98788.00;4221291;27;20032;-72
2022/05/12 09:04:38;;;;;;;3.03;2.45;;;;;;;16.97;54.01;98797.41;4219074;28;19911;-72
2022/05/12 09:07:12;;;;;;;4.57;2.30;;;;;;;17.15;55.26;98800.03;4217669;28;20075;-72
2022/05/12 09:09:34;;;;;;;4.40;2.33;;;;;;;17.36;54.10;98789.41;4214048;28;20058;-72
2022/05/12 09:12:01;;;;;;;3.70;2.10;;;;;;;17.36;53.66;98799.81;4230241;27;20085;-72
2022/05/12 09:14:04;;;;;;;4.22;2.20;;;;;;;17.45;53.85;98786.13;4218589;28;20043;-72
2022/05/12 09:16:22;;;;;;;3.42;1.80;;;;;;;17.32;51.55;98791.47;4219104;28;20053;-72
2022/05/12 09:18:29;;;;;;;2.75;1.90;;;;;;;17.45;51.49;98794.50;4218081;28;20536;-72
2022/05/12 09:20:33;;;;;;;4.05;2.40;;;;;;;17.41;52.29;98794.56;4220035;28;20162;-72
2022/05/12 09:22:33;;;;;;;5.82;2.67;;;;;;;17.30;53.22;98801.47;4228089;27;20089;-72
2022/05/12 09:24:34;;;;;;;4.50;2.28;;;;;;;17.37;51.89;98784.59;4219208;27;20057;-72
2022/05/12 09:26:53;;;;;;;3.22;2.22;;;;;;;17.35;53.46;98785.03;4219224;28;20055;-72
2022/05/12 09:29:14;;;;;;;4.57;2.10;;;;;;;17.33;52.57;98787.44;4218904;28;20043;-72
2022/05/12 09:31:17;;;;;;;3.15;1.90;;;;;;;17.60;53.12;98790.34;4219829;28;20525;-71
2022/05/12 09:33:29;;;;;;;2.38;2.15;;;;;;;17.66;52.82;98790.69;4219231;28;20302;-71
2022/05/12 09:35:31;;;;;;;2.40;1.92;;;;;;;17.58;52.11;98794.78;4220470;28;20041;-71
2022/05/12 09:37:32;;;;;;;4.88;2.03;;;;;;;17.71;50.70;98795.84;4226514;27;20043;-72
2022/05/12 09:39:38;;;;;;;2.25;1.70;;;;;;;17.79;50.18;98802.13;4223936;27;20047;-72
2022/05/12 09:41:43;;;;;;;2.97;1.88;;;;;;;17.90;51.15;98798.00;4225728;27;20059;-71
2022/05/12 09:43:44;;;;;;;3.08;2.08;;;;;;;17.83;50.23;98795.28;4233918;27;20498;-72
2022/05/12 09:46:21;;;;;;;2.00;1.63;;;;;;;18.02;49.99;98796.63;4228811;27;20042;-72
2022/05/12 09:48:31;;;;;;;3.65;2.50;;;;;;;17.75;48.87;98796.59;4220231;27;20515;-72
2022/05/12 09:50:32;;;;;;;3.53;2.65;;;;;;;17.85;48.74;98803.25;4228351;27;20481;-72